createdAt,value
2022-08-17T00:01:51.879Z,17.46
2022-08-17T00:04:22.856Z,17.40
2022-08-17T00:06:53.542Z,17.28
2022-08-17T00:09:23.567Z,17.15
2022-08-17T00:12:41.925Z,17.14
2022-08-17T00:14:46.977Z,17.13
2022-08-17T00:17:17.036Z,17.08
2022-08-17T00:19:47.077Z,16.96
2022-08-17T00:22:35.207Z,17.00
2022-08-17T00:25:09.853Z,17.02
2022-08-17T00:27:43.121Z,16.98
2022-08-17T00:30:16.588Z,17.05
2022-08-17T00:33:23.451Z,17.04
2022-08-17T00:35:41.980Z,16.99
2022-08-17T00:38:12.816Z,16.97
2022-08-17T00:40:45.765Z,16.91
2022-08-17T00:43:24.172Z,16.96
2022-08-17T00:45:54.322Z,16.89
2022-08-17T00:48:29.921Z,16.91
2022-08-17T00:51:13.429Z,16.92
2022-08-17T00:53:50.382Z,16.86
2022-08-17T00:56:27.912Z,16.86
2022-08-17T00:59:01.017Z,16.81
2022-08-17T01:01:32.174Z,16.80
2022-08-17T01:04:05.188Z,16.77
2022-08-17T01:06:36.619Z,16.71
2022-08-17T01:09:08.728Z,16.68
2022-08-17T01:11:40.642Z,16.62
2022-08-17T01:14:13.706Z,16.61
2022-08-17T01:16:43.773Z,16.65
2022-08-17T01:19:23.906Z,16.68
2022-08-17T01:22:03.933Z,16.59
2022-08-17T01:24:38.780Z,16.59
2022-08-17T01:27:10.484Z,16.56
2022-08-17T01:29:46.457Z,16.54
2022-08-17T01:32:18.029Z,16.53
2022-08-17T01:34:50.998Z,16.48
2022-08-17T01:37:24.054Z,16.54
2022-08-17T01:40:02.972Z,16.45
2022-08-17T01:42:42.637Z,16.49
2022-08-17T01:45:19.481Z,16.31
2022-08-17T01:47:49.605Z,16.21
2022-08-17T01:50:25.361Z,16.24
2022-08-17T01:53:02.669Z,16.19
2022-08-17T01:55:42.765Z,16.09
2022-08-17T01:58:12.923Z,16.10
2022-08-17T02:00:51.734Z,16.09
2022-08-17T02:03:32.952Z,16.03
2022-08-17T02:06:03.325Z,15.98
2022-08-17T02:08:39.191Z,15.90
2022-08-17T02:11:25.626Z,15.94
2022-08-17T02:14:02.516Z,15.93
2022-08-17T02:16:36.962Z,15.90
2022-08-17T02:19:10.895Z,16.03
2022-08-17T02:21:42.978Z,15.94
2022-08-17T02:24:19.511Z,15.88
2022-08-17T02:27:12.111Z,15.94
2022-08-17T02:29:42.175Z,16.03
2022-08-17T02:32:27.665Z,16.01
2022-08-17T02:34:59.394Z,16.03
2022-08-17T02:37:30.538Z,16.13
2022-08-17T02:40:01.403Z,16.16
2022-08-17T02:42:38.453Z,16.22
2022-08-17T02:45:13.479Z,16.16
2022-08-17T02:47:44.345Z,16.10
2022-08-17T02:50:18.876Z,16.07
2022-08-17T02:53:02.306Z,16.05
2022-08-17T02:55:36.747Z,16.05
2022-08-17T02:58:10.591Z,16.07
2022-08-17T03:00:47.045Z,15.99
2022-08-17T03:03:21.191Z,16.01
2022-08-17T03:05:53.791Z,16.05
2022-08-17T03:08:25.568Z,15.94
2022-08-17T03:10:56.054Z,15.82
2022-08-17T03:13:30.817Z,15.82
2022-08-17T03:16:00.843Z,15.88
2022-08-17T03:18:30.962Z,15.88
2022-08-17T03:21:04.603Z,15.95
2022-08-17T03:23:40.964Z,15.89
2022-08-17T03:26:12.271Z,15.94
2022-08-17T03:28:47.998Z,15.95
2022-08-17T03:31:18.464Z,16.00
2022-08-17T03:33:48.422Z,15.99
2022-08-17T03:36:18.402Z,15.96
2022-08-17T03:38:48.397Z,15.89
2022-08-17T03:41:21.220Z,15.88
2022-08-17T03:43:53.835Z,15.93
2022-08-17T03:46:36.406Z,15.90
2022-08-17T03:49:22.147Z,15.90
2022-08-17T03:52:04.619Z,15.86
2022-08-17T03:54:47.352Z,15.74
2022-08-17T03:57:19.223Z,15.62
2022-08-17T03:59:52.391Z,15.58
2022-08-17T04:02:27.049Z,15.62
2022-08-17T04:04:57.190Z,15.67
2022-08-17T04:07:32.656Z,15.70
2022-08-17T04:10:02.718Z,15.64
2022-08-17T04:12:46.842Z,15.72
2022-08-17T04:15:20.122Z,15.76
2022-08-17T04:17:50.675Z,15.62
2022-08-17T04:20:24.448Z,15.50
2022-08-17T04:23:04.933Z,15.28
2022-08-17T04:25:38.006Z,15.24
2022-08-17T04:28:15.551Z,15.28
2022-08-17T04:30:50.223Z,15.25
2022-08-17T04:33:24.680Z,15.20
2022-08-17T04:35:58.083Z,15.16
2022-08-17T04:38:31.053Z,15.16
2022-08-17T04:41:15.024Z,15.41
2022-08-17T04:43:48.697Z,15.60
2022-08-17T04:46:24.904Z,15.72
2022-08-17T04:48:59.023Z,15.77
2022-08-17T04:51:33.978Z,15.98
2022-08-17T04:54:08.246Z,16.05
2022-08-17T04:56:39.011Z,16.18
2022-08-17T04:59:15.489Z,16.31
2022-08-17T05:01:51.043Z,16.40
2022-08-17T05:04:34.361Z,16.48
2022-08-17T05:07:05.925Z,16.98
2022-08-17T05:09:35.904Z,17.44
2022-08-17T05:12:07.343Z,17.92
2022-08-17T05:14:37.359Z,18.26
2022-08-17T05:17:11.270Z,18.18
2022-08-17T05:19:41.732Z,18.01
2022-08-17T05:22:11.694Z,17.97
2022-08-17T05:24:43.773Z,18.01
2022-08-17T05:27:23.701Z,18.04
2022-08-17T05:29:53.715Z,18.03
2022-08-17T05:32:37.366Z,18.03
2022-08-17T05:35:11.676Z,18.16
2022-08-17T05:37:41.744Z,18.62
2022-08-17T05:40:13.180Z,19.43
2022-08-17T05:42:43.677Z,20.27
2022-08-17T05:45:15.743Z,21.02
2022-08-17T05:47:50.425Z,21.93
2022-08-17T05:50:31.266Z,22.57
2022-08-17T05:53:16.289Z,23.15
2022-08-17T05:55:58.045Z,23.81
2022-08-17T05:58:40.229Z,24.36
2022-08-17T06:01:19.980Z,25.08
2022-08-17T06:04:00.471Z,25.62
2022-08-17T06:06:44.824Z,25.96
2022-08-17T06:09:33.979Z,26.10
2022-08-17T06:12:23.130Z,26.66
2022-08-17T06:15:24.670Z,26.95
2022-08-17T06:18:01.182Z,26.95
2022-08-17T06:20:48.199Z,26.73
2022-08-17T06:23:28.082Z,26.73
2022-08-17T06:26:06.639Z,26.83
2022-08-17T06:28:46.396Z,27.19
2022-08-17T06:31:29.328Z,27.86
2022-08-17T06:34:03.119Z,27.89
2022-08-17T06:36:58.285Z,27.49
2022-08-17T06:39:47.609Z,27.43
2022-08-17T06:42:55.018Z,26.83
2022-08-17T06:45:32.695Z,26.91
2022-08-17T06:48:13.523Z,27.10
2022-08-17T06:50:53.833Z,27.77
2022-08-17T06:53:34.697Z,28.59
2022-08-17T06:56:11.642Z,29.62
2022-08-17T06:58:45.959Z,30.31
2022-08-17T07:01:24.345Z,30.40
2022-08-17T07:04:05.178Z,30.03
2022-08-17T07:06:51.909Z,29.36
2022-08-17T07:09:32.123Z,29.92
2022-08-17T07:12:12.761Z,30.45
2022-08-17T07:14:52.348Z,30.92
2022-08-17T07:17:46.461Z,31.34
2022-08-17T07:20:25.198Z,31.36
2022-08-17T07:23:08.692Z,31.22
2022-08-17T07:25:41.335Z,31.06
2022-08-17T07:28:13.026Z,31.36
2022-08-17T07:30:50.912Z,31.57
2022-08-17T07:33:29.609Z,31.52
2022-08-17T07:36:01.676Z,32.14
2022-08-17T07:38:35.601Z,32.77
2022-08-17T07:41:12.646Z,33.33
2022-08-17T07:43:52.987Z,33.73
2022-08-17T07:46:38.231Z,34.10
2022-08-17T07:49:40.421Z,33.97
2022-08-17T07:52:47.682Z,34.37
2022-08-17T07:55:03.483Z,35.06
2022-08-17T07:57:40.376Z,34.73
2022-08-17T08:00:24.369Z,34.19
2022-08-17T08:03:27.265Z,33.27
2022-08-17T08:06:06.220Z,32.44
2022-08-17T08:08:43.309Z,31.75
2022-08-17T08:11:18.127Z,31.35
2022-08-17T08:13:50.724Z,31.05
2022-08-17T08:16:31.837Z,30.70
2022-08-17T08:19:04.574Z,30.17
2022-08-17T08:21:50.576Z,29.58
2022-08-17T08:24:53.609Z,29.08
2022-08-17T08:27:40.155Z,28.94
2022-08-17T08:30:18.363Z,29.12
2022-08-17T08:33:10.612Z,29.36
2022-08-17T08:35:49.144Z,29.68
2022-08-17T08:38:36.772Z,29.69
2022-08-17T08:41:39.724Z,30.19
2022-08-17T08:44:59.473Z,30.26
2022-08-17T08:47:45.150Z,29.88
2022-08-17T08:50:37.078Z,29.82
2022-08-17T08:53:23.634Z,29.68
2022-08-17T08:56:02.706Z,29.27
2022-08-17T08:58:45.211Z,29.08
2022-08-17T09:01:24.068Z,28.82
2022-08-17T09:04:44.929Z,28.43
2022-08-17T09:07:36.597Z,27.98
2022-08-17T09:10:18.360Z,27.90
2022-08-17T09:13:09.260Z,27.79
2022-08-17T09:15:47.805Z,27.89
2022-08-17T09:19:01.090Z,27.93
2022-08-17T09:21:29.688Z,28.17
2022-08-17T09:24:13.067Z,28.38
2022-08-17T09:26:51.464Z,28.42
2022-08-17T09:29:24.520Z,28.11
2022-08-17T09:31:59.701Z,28.07
2022-08-17T09:34:40.660Z,28.12
2022-08-17T09:37:28.414Z,28.14
2022-08-17T09:40:18.228Z,28.03
2022-08-17T09:42:52.977Z,27.91
2022-08-17T09:45:34.672Z,27.78
2022-08-17T09:48:14.811Z,27.77
2022-08-17T09:51:05.724Z,27.74
2022-08-17T09:53:40.766Z,27.84
2022-08-17T09:56:31.862Z,28.16
2022-08-17T09:59:27.581Z,28.52
2022-08-17T10:02:42.944Z,28.80
2022-08-17T10:05:23.777Z,29.73
2022-08-17T10:08:08.703Z,30.33
2022-08-17T10:10:58.817Z,30.57
2022-08-17T10:13:52.717Z,30.59
2022-08-17T10:16:35.446Z,30.73
2022-08-17T10:19:18.694Z,30.57
2022-08-17T10:22:14.667Z,30.58
2022-08-17T10:25:22.824Z,30.56
2022-08-17T10:28:03.483Z,30.46
2022-08-17T10:30:40.577Z,30.29
2022-08-17T10:33:20.310Z,29.88
2022-08-17T10:36:08.735Z,30.21
2022-08-17T10:38:48.698Z,30.69
2022-08-17T10:41:32.572Z,30.84
2022-08-17T10:44:39.396Z,30.89
2022-08-17T10:47:14.547Z,30.81
2022-08-17T10:49:49.649Z,30.66
2022-08-17T10:52:55.146Z,30.46
2022-08-17T10:55:25.854Z,30.36
2022-08-17T10:58:24.727Z,30.45
2022-08-17T11:01:03.860Z,30.27
2022-08-17T11:03:34.904Z,30.73
2022-08-17T11:06:20.312Z,31.16
2022-08-17T11:09:29.023Z,31.55
2022-08-17T11:12:21.972Z,31.64
2022-08-17T11:15:12.653Z,31.47
2022-08-17T11:18:41.170Z,31.31
2022-08-17T11:21:47.696Z,31.48
2022-08-17T11:24:24.187Z,30.89
2022-08-17T11:27:12.187Z,30.06
2022-08-17T11:29:59.536Z,29.82
2022-08-17T11:32:47.129Z,29.78
2022-08-17T11:35:47.187Z,28.88
2022-08-17T11:38:29.142Z,27.45
2022-08-17T11:41:29.043Z,26.96
2022-08-17T11:44:41.278Z,26.60
2022-08-17T11:47:38.433Z,26.46
2022-08-17T11:51:03.701Z,26.38
2022-08-17T11:54:32.348Z,26.26
2022-08-17T11:57:40.359Z,26.31
2022-08-17T12:00:56.468Z,26.37
2022-08-17T12:03:53.787Z,26.58
2022-08-17T12:06:45.037Z,26.50
2022-08-17T12:09:21.645Z,26.80
2022-08-17T12:12:13.287Z,27.36
2022-08-17T12:15:09.617Z,28.05
2022-08-17T12:17:48.436Z,29.24
2022-08-17T12:20:27.933Z,29.74
2022-08-17T12:23:09.624Z,30.00
2022-08-17T12:25:47.717Z,29.26
2022-08-17T12:28:30.363Z,29.93
2022-08-17T12:31:06.556Z,30.63
2022-08-17T12:33:46.110Z,30.58
2022-08-17T12:36:21.612Z,30.88
2022-08-17T12:39:04.614Z,31.48
2022-08-17T12:41:48.095Z,31.93
2022-08-17T12:44:24.121Z,32.50
2022-08-17T12:47:04.711Z,32.61
2022-08-17T12:49:42.457Z,32.74
2022-08-17T12:52:19.989Z,32.70
2022-08-17T12:55:00.037Z,32.72
2022-08-17T12:57:35.167Z,33.33
2022-08-17T13:00:17.508Z,34.52
2022-08-17T13:02:53.580Z,35.36
2022-08-17T13:05:34.100Z,36.15
2022-08-17T13:08:07.400Z,36.56
2022-08-17T13:10:39.716Z,36.17
2022-08-17T13:13:23.952Z,36.46
2022-08-17T13:16:01.172Z,36.21
2022-08-17T13:18:44.946Z,36.59
2022-08-17T13:21:30.659Z,36.81
2022-08-17T13:24:05.015Z,37.07
2022-08-17T13:26:40.822Z,38.32
2022-08-17T13:29:24.576Z,38.58
2022-08-17T13:32:04.271Z,39.07
2022-08-17T13:35:12.362Z,38.73
2022-08-17T13:37:38.605Z,37.72
2022-08-17T13:40:34.602Z,38.26
2022-08-17T13:43:06.861Z,38.72
2022-08-17T13:45:55.713Z,37.13
2022-08-17T13:48:32.094Z,36.41
2022-08-17T13:51:29.581Z,35.60
2022-08-17T13:54:24.128Z,36.29
2022-08-17T13:57:02.915Z,36.10
2022-08-17T13:59:54.332Z,36.53
2022-08-17T14:02:28.742Z,35.54
2022-08-17T14:05:02.096Z,36.50
2022-08-17T14:07:40.771Z,37.41
2022-08-17T14:10:17.858Z,37.13
2022-08-17T14:12:50.250Z,35.97
2022-08-17T14:15:55.695Z,35.77
2022-08-17T14:18:50.526Z,36.14
2022-08-17T14:21:11.362Z,36.41
2022-08-17T14:23:42.070Z,35.04
2022-08-17T14:26:21.774Z,35.02
2022-08-17T14:28:56.644Z,36.21
2022-08-17T14:31:27.654Z,37.19
2022-08-17T14:33:58.903Z,36.41
2022-08-17T14:36:31.301Z,36.72
2022-08-17T14:39:01.313Z,36.61
2022-08-17T14:41:34.329Z,38.33
2022-08-17T14:44:04.507Z,40.10
2022-08-17T14:46:35.417Z,39.38
2022-08-17T14:49:05.421Z,36.67
2022-08-17T14:51:35.525Z,36.64
2022-08-17T14:54:32.849Z,37.13
2022-08-17T14:57:24.528Z,37.73
2022-08-17T14:59:59.293Z,37.62
2022-08-17T15:02:31.204Z,37.30
2022-08-17T15:05:03.128Z,37.45
2022-08-17T15:07:33.557Z,37.73
2022-08-17T15:10:04.519Z,36.94
2022-08-17T15:12:39.465Z,35.59
2022-08-17T15:15:13.204Z,36.79
2022-08-17T15:17:46.034Z,36.92
2022-08-17T15:20:21.005Z,36.99
2022-08-17T15:22:55.295Z,36.06
2022-08-17T15:25:27.561Z,36.44
2022-08-17T15:28:00.766Z,36.88
2022-08-17T15:30:31.156Z,36.27
2022-08-17T15:33:03.203Z,35.14
2022-08-17T15:35:36.285Z,35.16
2022-08-17T15:38:12.156Z,36.47
2022-08-17T15:40:46.553Z,37.05
2022-08-17T15:43:27.380Z,36.63
2022-08-17T15:46:04.054Z,36.60
2022-08-17T15:48:46.182Z,36.85
2022-08-17T15:51:20.762Z,37.00
2022-08-17T15:53:55.016Z,35.60
2022-08-17T15:56:26.175Z,35.34
2022-08-17T15:58:58.914Z,33.88
2022-08-17T16:02:21.543Z,32.47
2022-08-17T16:04:30.106Z,32.17
2022-08-17T16:07:01.656Z,31.60
2022-08-17T16:09:31.675Z,31.08
2022-08-17T16:12:11.429Z,30.69
2022-08-17T16:14:44.024Z,30.21
2022-08-17T16:17:38.733Z,29.97
2022-08-17T16:20:04.395Z,30.00
2022-08-17T16:22:39.020Z,29.90
2022-08-17T16:25:13.866Z,29.90
2022-08-17T16:27:44.075Z,29.69
2022-08-17T16:30:18.634Z,29.87
2022-08-17T16:32:51.501Z,29.84
2022-08-17T16:35:27.096Z,29.89
2022-08-17T16:38:00.998Z,29.96
2022-08-17T16:40:35.714Z,29.87
2022-08-17T16:43:12.134Z,29.81
2022-08-17T16:45:47.537Z,29.90
2022-08-17T16:48:21.423Z,29.88
2022-08-17T16:51:03.678Z,29.89
2022-08-17T16:53:34.963Z,29.48
2022-08-17T16:56:05.145Z,29.35
2022-08-17T16:58:35.862Z,29.08
2022-08-17T17:01:10.034Z,28.84
2022-08-17T17:03:43.866Z,28.57
2022-08-17T17:06:25.728Z,28.28
2022-08-17T17:09:03.547Z,27.97
2022-08-17T17:11:42.958Z,27.74
2022-08-17T17:14:19.779Z,27.53
2022-08-17T17:17:04.419Z,27.40
2022-08-17T17:19:41.340Z,27.30
2022-08-17T17:22:22.300Z,27.14
2022-08-17T17:25:08.847Z,27.07
2022-08-17T17:27:48.508Z,26.99
2022-08-17T17:30:27.292Z,26.84
2022-08-17T17:33:07.652Z,26.85
2022-08-17T17:35:50.667Z,26.76
2022-08-17T17:38:29.221Z,26.69
2022-08-17T17:41:07.288Z,26.61
2022-08-17T17:43:40.353Z,26.47
2022-08-17T17:46:27.504Z,26.46
2022-08-17T17:49:02.099Z,26.45
2022-08-17T17:52:07.690Z,26.36
2022-08-17T17:54:54.106Z,26.18
2022-08-17T17:57:42.118Z,26.07
2022-08-17T18:00:19.673Z,25.96
2022-08-17T18:03:07.212Z,25.90
2022-08-17T18:06:01.875Z,25.75
2022-08-17T18:08:55.516Z,25.71
2022-08-17T18:12:01.158Z,25.58
2022-08-17T18:14:49.530Z,25.37
2022-08-17T18:17:20.712Z,25.29
2022-08-17T18:19:50.688Z,25.13
2022-08-17T18:22:25.583Z,25.06
2022-08-17T18:24:58.876Z,24.95
2022-08-17T18:27:39.404Z,24.84
2022-08-17T18:30:30.354Z,24.74
2022-08-17T18:33:26.888Z,24.72
2022-08-17T18:35:59.253Z,24.60
2022-08-17T18:38:36.869Z,24.62
2022-08-17T18:41:24.420Z,24.55
2022-08-17T18:44:05.464Z,24.42
2022-08-17T18:46:40.135Z,24.40
2022-08-17T18:49:29.955Z,24.38
2022-08-17T18:52:18.097Z,24.37
2022-08-17T18:55:11.316Z,24.26
2022-08-17T18:57:46.005Z,24.23
2022-08-17T19:00:21.481Z,24.20
2022-08-17T19:02:58.512Z,24.24
2022-08-17T19:05:37.914Z,24.15
2022-08-17T19:08:26.648Z,24.07
2022-08-17T19:11:04.232Z,24.08
2022-08-17T19:13:41.403Z,24.00
2022-08-17T19:16:21.329Z,23.92
2022-08-17T19:19:00.115Z,23.82
2022-08-17T19:21:40.376Z,23.73
2022-08-17T19:24:19.473Z,23.63
2022-08-17T19:27:01.655Z,23.60
2022-08-17T19:29:50.181Z,23.58
2022-08-17T19:32:25.939Z,23.55
2022-08-17T19:34:57.696Z,23.52
2022-08-17T19:37:40.190Z,23.47
2022-08-17T19:40:50.949Z,23.46
2022-08-17T19:43:33.276Z,23.48
2022-08-17T19:46:15.694Z,23.52
2022-08-17T19:48:59.410Z,23.46
2022-08-17T19:51:41.818Z,23.45
2022-08-17T19:54:24.830Z,23.44
2022-08-17T19:57:05.245Z,23.39
2022-08-17T19:59:56.509Z,23.42
2022-08-17T20:02:44.256Z,23.39
2022-08-17T20:05:19.811Z,23.39
2022-08-17T20:08:00.619Z,23.32
2022-08-17T20:10:45.248Z,23.25
2022-08-17T20:13:32.822Z,23.09
2022-08-17T20:16:09.944Z,22.95
2022-08-17T20:18:51.298Z,22.94
2022-08-17T20:21:29.087Z,22.91
2022-08-17T20:24:15.784Z,22.78
2022-08-17T20:26:58.517Z,22.72
2022-08-17T20:29:40.141Z,22.71
2022-08-17T20:32:29.360Z,22.64
2022-08-17T20:35:22.613Z,22.60
2022-08-17T20:38:01.981Z,22.56
2022-08-17T20:40:39.400Z,22.50
2022-08-17T20:43:52.247Z,22.53
2022-08-17T20:46:59.601Z,22.40
2022-08-17T20:49:50.811Z,22.40
2022-08-17T20:52:49.480Z,22.39
2022-08-17T20:55:54.790Z,22.36
2022-08-17T20:58:49.409Z,22.44
2022-08-17T21:01:39.616Z,22.53
2022-08-17T21:04:46.359Z,22.62
2022-08-17T21:07:48.704Z,22.67
2022-08-17T21:10:32.042Z,22.73
2022-08-17T21:13:39.888Z,22.79
2022-08-17T21:16:33.407Z,22.81
2022-08-17T21:19:22.151Z,22.82
2022-08-17T21:22:09.724Z,22.80
2022-08-17T21:24:59.512Z,22.84
2022-08-17T21:27:46.616Z,22.91
2022-08-17T21:30:52.047Z,22.85
2022-08-17T21:33:34.766Z,22.85
2022-08-17T21:36:28.894Z,22.96
2022-08-17T21:39:09.420Z,23.13
2022-08-17T21:41:53.815Z,23.14
2022-08-17T21:44:36.406Z,22.99
2022-08-17T21:47:21.894Z,22.55
2022-08-17T21:49:51.943Z,22.24
2022-08-17T21:52:29.520Z,21.94
2022-08-17T21:55:03.390Z,21.50
2022-08-17T21:57:52.998Z,21.36
2022-08-17T22:00:36.364Z,21.14
2022-08-17T22:03:23.854Z,21.05
2022-08-17T22:05:53.953Z,20.94
2022-08-17T22:08:28.330Z,21.00
2022-08-17T22:11:04.600Z,20.77
2022-08-17T22:13:41.091Z,20.67
2022-08-17T22:16:29.306Z,20.51
2022-08-17T22:19:02.039Z,20.44
2022-08-17T22:21:32.104Z,20.34
2022-08-17T22:24:08.812Z,20.12
2022-08-17T22:27:03.380Z,19.94
2022-08-17T22:30:03.076Z,19.74
2022-08-17T22:32:40.924Z,19.66
2022-08-17T22:35:40.826Z,19.71
2022-08-17T22:38:34.915Z,19.56
2022-08-17T22:41:40.549Z,19.43
2022-08-17T22:44:19.755Z,19.45
2022-08-17T22:47:11.255Z,19.54
2022-08-17T22:49:53.271Z,19.37
2022-08-17T22:52:35.549Z,19.44
2022-08-17T22:55:32.554Z,19.24
2022-08-17T22:58:16.701Z,19.25
2022-08-17T23:00:50.014Z,19.17
2022-08-17T23:03:28.066Z,19.16
2022-08-17T23:06:09.681Z,19.10
2022-08-17T23:08:48.436Z,18.93
2022-08-17T23:11:18.647Z,18.93
2022-08-17T23:13:48.732Z,18.93
2022-08-17T23:16:18.900Z,18.97
2022-08-17T23:18:52.177Z,18.98
2022-08-17T23:21:24.987Z,18.91
2022-08-17T23:23:59.159Z,18.81
2022-08-17T23:26:30.000Z,18.81
2022-08-17T23:29:02.340Z,18.91
2022-08-17T23:31:34.655Z,18.97
2022-08-17T23:34:12.596Z,18.95
2022-08-17T23:36:52.695Z,18.76
2022-08-17T23:39:27.951Z,18.66
2022-08-17T23:41:59.906Z,18.65
2022-08-17T23:44:31.190Z,18.78
2022-08-17T23:47:03.665Z,18.84
2022-08-17T23:49:37.620Z,18.83
2022-08-17T23:52:12.658Z,18.82
2022-08-17T23:54:50.919Z,18.78
2022-08-17T23:57:33.234Z,18.72
